EGEC - Campbeltown
Distance from station: E 5mi, 14km
Updated: 02/22/2018 2:50am
Light rain, Mostly cloudy
Light rain, Mostly cloudy
 Wind from S
Wind: S 10 mph , 17 km/h
Temperature: 41°F , 5°C
Wind Chill: 35°F , 2°C
Dew Point: 39°F , 4°C
Humidity: 93%
Barometer: 30.18 inHg , 1022 hPa
Summary: Light Rain
Clouds: Mostly Cloudy
Visibility: 6 miles , 10 km
Cloud details: Partly Cloudy 1100 ft
Mostly Cloudy 1600 ft
2018/02/22 10:50 EGEC 221050Z 18009KT 9999 -RA SCT011 BKN016 05/04 Q1022